Flight Track Log - Related Links

Times and Time Zones

All times are in EDT time to prevent confusion due to time zone crossing. See the N840DP flight status page for this flight to view local times or setup timezone preferences in your user account.

Time Position Orientation Groundspeed Altitude Reporting Facility
EDT Latitude Longitude Course Direction KTS MPH feet Rate Location/Type
Tue 05:58:16 PM 41.7667 -88.5167 143° Southeast 185 213 1,700  Level Chicago TRACON
Tue 05:59:22 PM 41.7167 -88.4667 143° Southeast 254 292 4,900 2,787 Climbing Chicago TRACON
Tue 06:00:23 PM 41.6833 -88.3833 118° Southeast 281 323 7,600 2,833 Climbing Chicago TRACON
Tue 06:01:46 PM 41.6875 -88.2567 87° East 277 319 11,700 2,877 Climbing Chicago Center
Tue 06:02:49 PM 41.7308 -88.1581 59° Northeast 307 353 14,600 2,640 Climbing Chicago Center
Tue 06:03:51 PM 41.7692 -88.0267 69° East 329 379 17,200 2,419 Climbing Chicago Center
Tue 06:04:53 PM 41.7675 -87.9044 91° East 330 380 19,600 1,887 Climbing Chicago Center
Tue 06:05:55 PM 41.7669 -87.7772 90° East 341 392 21,100 1,500 Climbing Chicago Center
Tue 06:06:57 PM 41.7675 -87.6406 90° East 364 419 22,700 1,500 Climbing Chicago Center
Tue 06:07:59 PM 41.7686 -87.4997 89° East 376 433 24,200 1,548 Climbing Chicago Center
Tue 06:09:01 PM 41.7697 -87.3278 89° East 385 443 25,900 1,548 Climbing Chicago Center
Tue 06:10:03 PM 41.7692 -87.1833 90° East 387 445 27,400 1,452 Climbing Chicago Center
Tue 06:11:05 PM 41.7697 -87.0397 90° East 388 447 28,900 1,403 Climbing Chicago Center
Tue 06:12:07 PM 41.7689 -86.8972 90° East 386 444 30,300 1,008 Climbing Chicago Center
Tue 06:13:10 PM 41.7706 -86.7564 89° East 381 438 31,000 336 Climbing Chicago Center
Tue 06:14:12 PM 41.7692 -86.5975 91° East 402 463 31,000  Level Chicago Center
Tue 06:15:14 PM 41.7692 -86.4372 90° East 424 488 31,000  Level Chicago Center
Tue 06:16:16 PM 41.7678 -86.2731 91° East 438 504 31,000  Level Chicago Center
Tue 06:17:18 PM 41.7681 -86.0714 90° East 449 517 31,000  Level Chicago Center
Tue 06:18:20 PM 41.7692 -85.9006 89° East 457 526 31,000  Level Chicago Center
Tue 06:19:22 PM 41.7686 -85.7306 90° East 455 524 31,000  Level Chicago Center
Tue 06:20:25 PM 41.7694 -85.5561 90° East 463 533 31,000  Level Chicago Center
Tue 06:21:26 PM 41.7711 -85.3781 89° East 465 535 31,000  Level Chicago Center
Tue 06:22:28 PM 41.7683 -85.2025 91° East 474 545 31,000  Level Chicago Center
Tue 06:23:30 PM 41.7672 -85.0289 90° East 469 540 31,000  Level Chicago Center
Tue 06:24:33 PM 41.7647 -84.8558 91° East 467 537 31,000  Level Chicago Center
Tue 06:25:35 PM 41.7617 -84.6478 91° East 468 539 31,000  Level Chicago Center
Tue 06:26:37 PM 41.7592 -84.4750 91° East 465 535 31,000  Level Chicago Center
Tue 06:27:46 PM 41.7569 -84.2689 91° East 464 534 31,000  Level Cleveland Center
Tue 06:28:46 PM 41.7511 -84.1153 93° East 457 526 31,000  Level Cleveland Center
Tue 06:29:46 PM 41.7503 -83.9428 90° East 462 532 31,000  Level Cleveland Center
Tue 06:30:46 PM 41.7447 -83.7700 92° East 462 532 31,000  Level Cleveland Center
Tue 06:31:46 PM 41.7389 -83.5942 92° East 462 532 31,000  Level Cleveland Center
Tue 06:32:46 PM 41.7372 -83.4189 91° East 462 532 31,000  Level Cleveland Center
Tue 06:33:46 PM 41.7331 -83.2433 92° East 462 532 31,000  Level Cleveland Center
Tue 06:34:46 PM 41.7308 -83.0706 91° East 462 532 31,000  Level Cleveland Center
Tue 06:35:46 PM 41.7261 -82.8953 92° East 462 532 31,000 -100 Level Cleveland Center
Tue 06:36:46 PM 41.7194 -82.7003 93° East 467 537 30,800 -500 Descending Cleveland Center
Tue 06:37:46 PM 41.7142 -82.5247 92° East 467 537 30,000 -900 Descending Cleveland Center
Tue 06:38:46 PM 41.7086 -82.3494 92° East 467 537 29,000 -1,300 Descending Cleveland Center
Tue 06:39:46 PM 41.7050 -82.1711 91° East 467 537 27,400 -1,600 Descending Cleveland Center
Tue 06:40:46 PM 41.7031 -82.0128 91° East 473 544 25,800 -1,850 Descending Cleveland Center
Tue 06:41:46 PM 41.6944 -81.8400 94° East 473 544 23,700 -2,200 Descending Cleveland Center
Tue 06:42:46 PM 41.6903 -81.6536 92° East 463 533 21,400 -2,450 Descending Cleveland Center
Tue 06:43:46 PM 41.6811 -81.4894 94° East 453 521 18,800 -2,450 Descending Cleveland Center
Tue 06:44:46 PM 41.6761 -81.3308 92° East 438 504 16,500 -2,450 Descending Cleveland Center
Tue 06:45:46 PM 41.6708 -81.1808 93° East 416 479 13,900 -2,550 Descending Cleveland Center
Tue 06:46:46 PM 41.6631 -81.0417 94° East 385 443 11,400 -1,900 Descending Cleveland Center
Tue 06:47:46 PM 41.6592 -80.9222 92° East 341 392 10,100 -1,100 Descending Cleveland Center
Tue 06:48:46 PM 41.6553 -80.8278 93° East 305 351 9,200 -1,200 Descending Cleveland Center
Tue 06:49:46 PM 41.6492 -80.7164 94° East 289 333 7,700 -1,500 Descending Cleveland Center
Tue 06:50:46 PM 41.6431 -80.6136 95° East 289 333 6,200 -1,500 Descending Cleveland Center
Tue 06:51:46 PM 41.6411 -80.5108 91° East 283 326 4,700 -1,100 Descending Cleveland Center
Tue 06:52:46 PM 41.6347 -80.4081 95° East 278 320 4,000 -650 Descending Cleveland Center
Tue 06:53:46 PM 41.6239 -80.2969 97° East 278 320 3,400 -550 Descending Cleveland Center
Tue 06:54:46 PM 41.5906 -80.2306 124° Southeast 244 281 2,900 -450 Descending Cleveland Center
Tue 06:55:46 PM 41.6111 -80.1667 67° East 194 223 2,500 -400 Descending Cleveland Center
Tue 06:57:00 PM 41.6167 -80.2000 304° West  Level FlightAware Approximate
Tue 07:04:00 PM 41.6265 -80.2147 304° West  Level Estimated

Login

Don't have an account? Register now (free) for customized features, flight alerts, and more!